Danciger, Texas
Current Conditions -  °F | °C
As of 9:15 AM on Saturday 20 Dec 2014 (Local Time) from KARM Reporting Station
Overcast Overcast  
Wind Chill: 51°   Ceiling: 800
Heat Index: 51°   Visibility: 10mi
Dew Point: 49°   Wind: 10mph
Humidity: 92%   Direction: 360°N
Pressure: 30.21"   Gusts: NA
Location:  29.17°N, 95.82°W
Report Text: KARM 201515Z AUTO 36009KT 10SM OVC008 11/09 A3021 RMK AO2 T01070094
Loading
Personal Weather Stations






























Interactive Weather Map New forecast layout! Learn more

10-Day Weather Forecast

Advertisements
Track Severe Weather on mobile